Time;durP1;ratioP1;P1;durP2;ratioP2;P2;SDS_P1;SDS_P2;PMS_P1;PMS_P2;Temp;Humidity;BMP_temperature;BMP_pressure;BME280_temperature;BME280_humidity;BME280_pressure;Samples;Min_cycle;Max_cycle;Signal;HPM_P1;HPM_P2
2022/03/04 00:01:53;;;;;;;37.40;17.08;;;;;;;-2.77;86.99;98571.63;5063775;28;20345;-66
2022/03/04 00:04:18;;;;;;;47.80;22.95;;;;;;;-2.82;86.93;98578.31;5046530;28;20067;-66
2022/03/04 00:06:44;;;;;;;56.53;21.05;;;;;;;-2.84;87.10;98580.00;5046397;28;20221;-66
2022/03/04 00:09:09;;;;;;;35.83;17.55;;;;;;;-2.86;87.10;98577.38;5046274;28;20032;-66
2022/03/04 00:11:35;;;;;;;48.22;23.38;;;;;;;-2.91;86.68;98583.22;5046281;28;20036;-66
2022/03/04 00:14:00;;;;;;;68.60;22.65;;;;;;;-2.94;86.85;98588.25;5046272;28;20221;-66
2022/03/04 00:16:26;;;;;;;74.32;24.25;;;;;;;-3.02;86.46;98581.97;5046220;28;20029;-66
2022/03/04 00:19:06;;;;;;;60.08;23.27;;;;;;;-3.01;86.68;98581.19;5046434;28;20036;-66
2022/03/04 00:21:35;;;;;;;68.40;23.40;;;;;;;-2.90;87.19;98584.97;5046194;28;20024;-66
2022/03/04 00:24:01;;;;;;;63.80;23.63;;;;;;;-2.93;86.96;98587.44;5046000;28;20140;-66
2022/03/04 00:26:27;;;;;;;54.30;19.60;;;;;;;-2.96;87.04;98592.47;5046013;28;20025;-66
2022/03/04 00:28:52;;;;;;;51.03;20.63;;;;;;;-3.07;86.87;98591.28;5045951;28;20021;-66
2022/03/04 00:31:18;;;;;;;47.92;16.33;;;;;;;-3.09;86.88;98598.06;5046008;28;20055;-66
2022/03/04 00:33:43;;;;;;;44.08;17.77;;;;;;;-3.15;86.75;98597.84;5045912;28;20025;-66
2022/03/04 00:36:08;;;;;;;46.95;15.60;;;;;;;-3.15;87.30;98605.56;5045863;28;20186;-66
2022/03/04 00:38:34;;;;;;;47.47;16.70;;;;;;;-3.08;87.80;98607.50;5053842;28;20063;-66
2022/03/04 00:40:59;;;;;;;28.45;15.05;;;;;;;-3.06;87.98;98603.31;5065774;28;20024;-66
2022/03/04 00:43:25;;;;;;;35.78;13.32;;;;;;;-3.07;88.61;98606.72;5065753;28;20332;-66
2022/03/04 00:45:53;;;;;;;24.85;12.90;;;;;;;-3.12;87.71;98608.25;5065751;28;20025;-66
2022/03/04 00:48:19;;;;;;;32.22;13.40;;;;;;;-3.21;88.45;98602.78;5065670;28;20032;-66
2022/03/04 00:50:44;;;;;;;31.75;14.23;;;;;;;-3.25;88.64;98585.50;5065741;28;20025;-66
2022/03/04 00:53:10;;;;;;;30.83;13.02;;;;;;;-3.22;88.92;98598.47;5065524;28;20040;-66
2022/03/04 00:55:37;;;;;;;32.03;14.20;;;;;;;-3.23;88.57;98610.47;5065466;28;20021;-66
2022/03/04 00:58:07;;;;;;;25.20;11.38;;;;;;;-3.27;87.25;98607.72;5065411;28;20020;-66
2022/03/04 01:00:34;;;;;;;38.90;14.68;;;;;;;-3.34;87.94;98600.63;5065232;28;20071;-66
2022/03/04 01:03:04;;;;;;;36.47;12.73;;;;;;;-3.32;88.10;98604.16;5065580;28;20021;-66
2022/03/04 01:05:29;;;;;;;33.63;13.43;;;;;;;-3.38;87.99;98598.78;5065510;28;20031;-66
2022/03/04 01:07:55;;;;;;;32.08;12.70;;;;;;;-3.40;87.86;98590.13;5048298;28;20061;-66
2022/03/04 01:10:20;;;;;;;23.92;11.70;;;;;;;-3.48;87.82;98591.59;5045187;28;20025;-66
2022/03/04 01:12:46;;;;;;;27.75;12.57;;;;;;;-3.44;87.94;98593.44;5045153;28;20220;-66
2022/03/04 01:15:12;;;;;;;19.65;12.90;;;;;;;-3.51;87.72;98591.47;5045095;28;20325;-66
2022/03/04 01:17:38;;;;;;;39.30;15.55;;;;;;;-3.45;87.31;98582.25;5045060;28;20093;-66
2022/03/04 01:20:05;;;;;;;35.22;16.25;;;;;;;-3.45;87.52;98591.69;5045027;28;20304;-66
2022/03/04 01:22:30;;;;;;;31.55;14.18;;;;;;;-3.56;88.18;98582.72;5050433;28;20021;-66
2022/03/04 01:24:56;;;;;;;38.15;14.63;;;;;;;-3.47;88.53;98580.47;5065059;28;20063;-66
2022/03/04 01:27:21;;;;;;;34.05;15.30;;;;;;;-3.60;88.42;98580.88;5064819;28;20029;-66
2022/03/04 01:29:47;;;;;;;35.05;14.90;;;;;;;-3.50;89.19;98588.06;5064794;28;20270;-66
2022/03/04 01:32:12;;;;;;;29.42;14.02;;;;;;;-3.48;88.74;98582.16;5064552;28;20320;-66
2022/03/04 01:34:38;;;;;;;28.27;12.55;;;;;;;-3.48;89.06;98576.16;5064628;28;20040;-66
2022/03/04 01:37:04;;;;;;;29.85;13.68;;;;;;;-3.52;88.30;98570.00;5064105;28;20025;-66
2022/03/04 01:39:30;;;;;;;26.15;10.93;;;;;;;-3.67;87.32;98568.63;5045782;28;20048;-66
2022/03/04 01:41:56;;;;;;;31.73;12.70;;;;;;;-3.66;88.39;98575.50;5044583;28;20202;-66
2022/03/04 01:44:22;;;;;;;26.38;12.13;;;;;;;-3.71;88.37;98566.75;5044795;28;20244;-66
2022/03/04 01:46:47;;;;;;;29.38;11.93;;;;;;;-3.72;88.08;98570.16;5044535;28;20087;-66
2022/03/04 01:49:13;;;;;;;41.53;15.63;;;;;;;-3.69;88.79;98572.81;5044402;28;20342;-66
2022/03/04 01:51:38;;;;;;;22.92;12.25;;;;;;;-3.66;88.73;98570.38;5044428;28;20036;-66
2022/03/04 01:54:04;;;;;;;46.03;12.48;;;;;;;-3.68;88.54;98566.84;5044386;28;20021;-66
2022/03/04 01:56:30;;;;;;;31.80;14.70;;;;;;;-3.66;88.86;98567.78;5044393;28;20025;-66
2022/03/04 01:58:55;;;;;;;30.85;13.80;;;;;;;-3.68;88.53;98567.75;5044323;28;20289;-66
2022/03/04 02:01:21;;;;;;;32.05;14.68;;;;;;;-3.74;88.09;98569.25;5044273;28;20053;-66
2022/03/04 02:03:46;;;;;;;29.25;13.20;;;;;;;-3.77;88.06;98564.84;5044290;28;20025;-66
2022/03/04 02:06:12;;;;;;;25.60;11.18;;;;;;;-3.69;87.97;98567.69;5044171;28;20249;-66
2022/03/04 02:08:38;;;;;;;34.65;14.75;;;;;;;-3.72;88.11;98567.56;5044175;28;20067;-66
2022/03/04 02:11:03;;;;;;;23.55;11.25;;;;;;;-3.81;87.55;98559.53;5044071;28;20084;-66
2022/03/04 02:13:28;;;;;;;28.42;12.57;;;;;;;-3.90;87.76;98559.25;5044111;28;20029;-66
2022/03/04 02:15:54;;;;;;;29.73;13.98;;;;;;;-3.79;88.37;98561.38;5044075;28;20030;-66
2022/03/04 02:18:19;;;;;;;35.70;14.25;;;;;;;-3.82;88.15;98562.94;5044039;28;20056;-66
2022/03/04 02:20:51;;;;;;;30.05;13.25;;;;;;;-3.86;87.74;98561.09;5044026;28;20021;-66
2022/03/04 02:23:18;;;;;;;29.70;11.07;;;;;;;-3.94;87.66;98562.50;5043989;28;20040;-66
2022/03/04 02:25:52;;;;;;;25.45;11.25;;;;;;;-3.90;88.13;98566.97;5043900;28;20083;-66
2022/03/04 02:28:19;;;;;;;22.73;11.55;;;;;;;-3.97;88.05;98564.97;5044046;28;20044;-66
2022/03/04 02:30:45;;;;;;;29.85;9.88;;;;;;;-3.99;89.02;98566.63;5043810;28;20017;-66
2022/03/04 02:33:10;;;;;;;30.83;11.82;;;;;;;-4.00;88.24;98563.16;5043870;28;20343;-66
2022/03/04 02:35:37;;;;;;;24.23;12.43;;;;;;;-3.98;89.21;98565.78;5048576;28;20013;-66
2022/03/04 02:38:03;;;;;;;20.65;10.63;;;;;;;-3.94;89.97;98568.53;5048575;28;20021;-66
2022/03/04 02:40:29;;;;;;;27.40;12.55;;;;;;;-3.96;89.22;98564.16;5063219;28;20089;-66
2022/03/04 02:42:54;;;;;;;21.50;9.18;;;;;;;-3.96;89.21;98561.59;5063258;28;20021;-66
2022/03/04 02:45:20;;;;;;;25.65;13.07;;;;;;;-3.91;89.00;98562.63;5063898;28;20070;-66
2022/03/04 02:47:46;;;;;;;35.20;14.02;;;;;;;-3.86;88.81;98561.09;5067119;28;20331;-66
2022/03/04 02:50:11;;;;;;;21.85;10.70;;;;;;;-3.96;89.06;98561.59;5063352;28;20020;-66
2022/03/04 02:52:36;;;;;;;18.67;9.30;;;;;;;-3.99;89.20;98561.47;5048912;28;20021;-66
2022/03/04 02:55:02;;;;;;;22.58;10.85;;;;;;;-4.04;89.17;98557.84;5047742;28;20032;-66
2022/03/04 02:57:28;;;;;;;22.05;11.40;;;;;;;-4.04;88.37;98555.28;5048839;28;20084;-66
2022/03/04 02:59:53;;;;;;;18.67;10.13;;;;;;;-4.01;89.72;98561.44;5047560;28;20104;-66
2022/03/04 03:02:18;;;;;;;25.92;12.50;;;;;;;-4.03;89.34;98562.16;5048781;28;20021;-66
2022/03/04 03:04:44;;;;;;;23.27;11.52;;;;;;;-4.11;89.66;98556.78;5047572;28;20056;-66
2022/03/04 03:07:10;;;;;;;28.70;14.07;;;;;;;-3.99;90.11;98570.03;5047529;28;20025;-66
2022/03/04 03:09:35;;;;;;;17.75;9.57;;;;;;;-3.97;89.81;98562.38;5058249;28;20025;-66
2022/03/04 03:12:00;;;;;;;24.40;10.93;;;;;;;-3.94;89.38;98557.34;5066885;28;20017;-66
2022/03/04 03:14:26;;;;;;;28.52;10.68;;;;;;;-3.94;89.69;98554.78;5066572;28;20217;-66
2022/03/04 03:16:51;;;;;;;32.50;13.00;;;;;;;-4.00;90.23;98554.56;5056807;28;20052;-66
2022/03/04 03:19:17;;;;;;;32.95;11.85;;;;;;;-3.94;89.54;98549.66;5048682;28;20063;-66
2022/03/04 03:21:42;;;;;;;27.85;11.10;;;;;;;-3.93;89.53;98554.00;5047261;28;20325;-66
2022/03/04 03:24:08;;;;;;;29.10;10.70;;;;;;;-3.93;89.50;98554.00;5047153;28;20336;-66
2022/03/04 03:26:34;;;;;;;29.05;12.70;;;;;;;-3.90;89.17;98551.53;5057761;28;20021;-66
2022/03/04 03:28:59;;;;;;;36.10;13.02;;;;;;;-3.93;88.46;98554.00;5052023;28;20065;-66
2022/03/04 03:31:25;;;;;;;38.00;13.68;;;;;;;-3.93;88.85;98546.28;5047147;28;20081;-66
2022/03/04 03:33:51;;;;;;;30.13;11.95;;;;;;;-3.95;88.59;98550.47;5047248;28;20212;-66
2022/03/04 03:36:16;;;;;;;26.05;12.93;;;;;;;-3.89;89.23;98540.41;5048166;28;20029;-66
2022/03/04 03:38:41;;;;;;;36.35;15.38;;;;;;;-3.87;89.95;98546.47;5046961;28;20325;-66
2022/03/04 03:41:07;;;;;;;72.93;20.73;;;;;;;-3.90;89.87;98544.69;5050479;28;20037;-66
2022/03/04 03:43:32;;;;;;;60.25;18.65;;;;;;;-3.88;89.89;98547.28;5059300;28;20120;-66
2022/03/04 03:45:58;;;;;;;36.42;13.60;;;;;;;-3.82;89.36;98545.84;5047966;28;20021;-66
2022/03/04 03:48:23;;;;;;;39.03;13.90;;;;;;;-3.73;89.79;98547.84;5046761;28;20216;-66
2022/03/04 03:50:48;;;;;;;31.38;14.90;;;;;;;-3.84;89.57;98544.00;5046651;28;20205;-66
2022/03/04 03:53:14;;;;;;;23.30;10.63;;;;;;;-3.80;89.11;98540.75;5046940;28;20048;-66
2022/03/04 03:55:39;;;;;;;24.85;9.15;;;;;;;-3.71;89.56;98538.47;5047630;28;20017;-66
2022/03/04 03:58:05;;;;;;;26.85;11.68;;;;;;;-3.78;88.67;98539.97;5046589;28;20067;-66
2022/03/04 04:00:31;;;;;;;20.45;10.13;;;;;;;-3.75;88.63;98534.03;5050762;28;20025;-66
2022/03/04 04:02:56;;;;;;;34.00;11.63;;;;;;;-3.75;88.86;98541.75;5058228;28;20025;-66
2022/03/04 04:05:22;;;;;;;17.10;8.18;;;;;;;-3.71;87.99;98539.34;5048559;28;20264;-66
2022/03/04 04:07:48;;;;;;;24.75;9.75;;;;;;;-3.68;88.17;98538.56;5066057;28;20086;-66
2022/03/04 04:10:14;;;;;;;34.75;9.63;;;;;;;-3.69;88.09;98536.81;5064024;28;20085;-66
2022/03/04 04:12:39;;;;;;;17.25;7.95;;;;;;;-3.67;88.09;98535.19;5065739;28;20025;-66
2022/03/04 04:15:06;;;;;;;27.92;11.63;;;;;;;-3.68;88.49;98541.13;5065418;28;20273;-66
2022/03/04 04:17:31;;;;;;;25.27;8.45;;;;;;;-3.64;87.84;98532.72;5046226;28;20045;-66
2022/03/04 04:19:57;;;;;;;19.60;7.78;;;;;;;-3.68;88.28;98536.00;5046223;28;20032;-66
2022/03/04 04:22:22;;;;;;;19.10;8.90;;;;;;;-3.59;88.55;98536.31;5063232;28;20048;-66
2022/03/04 04:24:47;;;;;;;19.25;7.57;;;;;;;-3.39;88.62;98536.16;5065605;28;20032;-66
2022/03/04 04:27:13;;;;;;;22.33;7.55;;;;;;;-3.18;88.33;98546.28;5048532;28;20076;-66
2022/03/04 04:29:38;;;;;;;21.60;8.52;;;;;;;-2.93;88.21;98548.81;5045950;28;20224;-66
2022/03/04 04:32:04;;;;;;;17.02;7.68;;;;;;;-2.69;88.61;98544.44;5045957;28;20033;-66
2022/03/04 04:34:29;;;;;;;13.95;6.53;;;;;;;-2.30;87.69;98545.59;5046966;28;20252;-66
2022/03/04 04:36:55;;;;;;;16.08;7.28;;;;;;;-2.16;87.10;98549.44;5045952;28;20249;-66
2022/03/04 04:39:20;;;;;;;14.75;7.18;;;;;;;-2.22;85.45;98544.09;5045848;28;20018;-66
2022/03/04 04:41:46;;;;;;;19.40;7.43;;;;;;;-2.27;85.86;98543.97;5045777;28;20033;-66
2022/03/04 04:44:11;;;;;;;23.98;9.48;;;;;;;-2.29;86.39;98545.66;5045991;28;20022;-66
2022/03/04 04:46:37;;;;;;;17.50;7.07;;;;;;;-2.38;86.33;98541.91;5061740;28;20073;-66
2022/03/04 04:49:03;;;;;;;13.25;6.50;;;;;;;-2.41;86.66;98546.97;5054012;28;20025;-66
2022/03/04 04:51:28;;;;;;;24.48;8.57;;;;;;;-2.46;85.86;98544.25;5045613;28;20025;-66
2022/03/04 04:53:54;;;;;;;27.95;9.23;;;;;;;-2.34;85.98;98548.94;5045557;28;20379;-66
2022/03/04 04:56:20;;;;;;;25.38;8.10;;;;;;;-2.23;85.71;98552.69;5062618;28;20029;-66
2022/03/04 04:58:46;;;;;;;20.25;7.80;;;;;;;-2.17;85.74;98552.88;5064905;28;20088;-66
2022/03/04 05:01:12;;;;;;;15.52;7.80;;;;;;;-2.14;85.65;98546.91;5057511;28;20037;-66
2022/03/04 05:03:37;;;;;;;15.88;7.50;;;;;;;-2.16;85.41;98546.88;5046504;28;20029;-66
2022/03/04 05:06:03;;;;;;;23.48;8.75;;;;;;;-2.06;85.01;98558.31;5045322;28;20024;-66
2022/03/04 05:08:29;;;;;;;18.73;9.55;;;;;;;-2.17;85.64;98552.88;5044703;28;20080;-66
2022/03/04 05:10:56;;;;;;;16.23;9.32;;;;;;;-2.24;86.02;98556.09;5045136;28;20018;-66
2022/03/04 05:13:22;;;;;;;23.35;7.63;;;;;;;-2.33;85.84;98555.81;5045162;28;20021;-66
2022/03/04 05:15:48;;;;;;;27.38;11.25;;;;;;;-2.57;84.99;98555.09;5062433;28;20088;-66
2022/03/04 05:18:13;;;;;;;19.15;9.40;;;;;;;-2.61;86.07;98553.25;5064748;28;20354;-66
2022/03/04 05:20:39;;;;;;;22.95;9.38;;;;;;;-2.76;85.62;98557.91;5064444;28;20017;-66
2022/03/04 05:23:04;;;;;;;18.80;8.23;;;;;;;-2.92;86.12;98566.00;5061553;28;20040;-66
2022/03/04 05:25:30;;;;;;;19.30;9.35;;;;;;;-2.94;86.72;98572.81;5059753;28;20021;-66
2022/03/04 05:27:55;;;;;;;24.45;9.73;;;;;;;-3.03;87.36;98578.56;5064611;28;20021;-66
2022/03/04 05:30:21;;;;;;;13.75;6.55;;;;;;;-3.02;87.24;98582.88;5064697;28;20074;-66
2022/03/04 05:32:46;;;;;;;13.93;5.72;;;;;;;-3.02;86.87;98587.13;5064253;28;20303;-66
2022/03/04 05:35:13;;;;;;;16.10;7.60;;;;;;;-3.20;87.18;98589.97;5052049;28;20043;-66
2022/03/04 05:37:39;;;;;;;16.80;7.75;;;;;;;-3.30;87.22;98592.19;5044952;28;20051;-66
2022/03/04 05:40:05;;;;;;;20.05;8.95;;;;;;;-3.34;88.21;98590.34;5044572;28;20333;-66
2022/03/04 05:42:30;;;;;;;19.27;8.07;;;;;;;-3.30;88.02;98602.47;5044490;28;20017;-66
2022/03/04 05:44:56;;;;;;;20.63;9.20;;;;;;;-3.35;87.86;98604.88;5058277;28;20027;-66
2022/03/04 05:47:21;;;;;;;19.02;10.52;;;;;;;-3.35;87.75;98609.19;5063088;28;20049;-66
2022/03/04 05:49:47;;;;;;;23.40;10.57;;;;;;;-3.39;87.61;98612.47;5063526;28;20123;-66
2022/03/04 05:52:12;;;;;;;21.30;10.00;;;;;;;-3.51;87.19;98612.06;5063803;28;20217;-66
2022/03/04 05:54:38;;;;;;;20.92;9.80;;;;;;;-3.64;87.30;98604.75;5048316;28;20321;-66
2022/03/04 05:57:04;;;;;;;19.55;9.55;;;;;;;-3.58;87.74;98615.25;5044401;28;20093;-66
2022/03/04 05:59:29;;;;;;;23.52;10.40;;;;;;;-3.67;88.19;98609.78;5044213;28;20021;-66
2022/03/04 06:01:55;;;;;;;29.48;8.95;;;;;;;-3.62;88.45;98619.38;5044273;28;20221;-66
2022/03/04 06:04:21;;;;;;;14.90;9.05;;;;;;;-3.70;88.16;98619.94;5051476;28;20028;-66
2022/03/04 06:06:47;;;;;;;20.90;10.38;;;;;;;-3.80;87.56;98623.00;5043098;28;20032;-66
2022/03/04 06:09:12;;;;;;;34.20;13.60;;;;;;;-3.76;89.38;98630.00;5043196;28;20063;-66
2022/03/04 06:11:38;;;;;;;38.95;20.25;;;;;;;-3.73;89.89;98624.97;5043282;28;20336;-66
2022/03/04 06:14:03;;;;;;;32.03;14.27;;;;;;;-3.78;89.90;98627.38;5044332;28;20079;-66
2022/03/04 06:16:29;;;;;;;25.05;9.75;;;;;;;-3.74;89.80;98633.53;5043453;28;20017;-66
2022/03/04 06:18:54;;;;;;;24.55;11.68;;;;;;;-3.70;89.28;98640.53;5044729;28;20252;-66
2022/03/04 06:21:20;;;;;;;24.60;8.90;;;;;;;-3.72;89.00;98642.16;5062153;28;20362;-66
2022/03/04 06:23:45;;;;;;;17.08;8.75;;;;;;;-3.76;88.41;98640.28;5046795;28;20324;-66
2022/03/04 06:26:11;;;;;;;20.60;10.23;;;;;;;-3.82;88.43;98634.94;5044196;28;20021;-66
2022/03/04 06:28:36;;;;;;;25.98;12.10;;;;;;;-3.82;89.50;98643.53;5061729;28;20033;-66
2022/03/04 06:31:03;;;;;;;21.15;8.65;;;;;;;-3.74;90.25;98659.25;5056396;28;20030;-67
2022/03/04 06:33:32;;;;;;;21.75;11.30;;;;;;;-3.72;90.36;98652.44;5053225;28;20028;-67
2022/03/04 06:36:10;;;;;;;17.60;9.25;;;;;;;-3.51;89.50;98666.06;5062324;28;20028;-67
2022/03/04 06:38:38;;;;;;;15.45;7.93;;;;;;;-3.47;89.31;98670.50;5062334;28;20017;-67
2022/03/04 06:41:04;;;;;;;21.60;9.57;;;;;;;-3.33;88.41;98679.56;5062312;28;20045;-67
2022/03/04 06:43:29;;;;;;;19.65;9.95;;;;;;;-3.14;87.85;98677.69;5060587;28;20021;-67
2022/03/04 06:45:55;;;;;;;23.63;11.13;;;;;;;-2.85;87.08;98676.97;5063202;28;20240;-67
2022/03/04 06:48:23;;;;;;;30.20;10.48;;;;;;;-2.56;86.34;98680.50;5053883;28;20025;-66
2022/03/04 06:50:50;;;;;;;15.50;7.47;;;;;;;-2.14;85.13;98684.44;5057089;28;20063;-65
2022/03/04 06:53:16;;;;;;;18.05;9.68;;;;;;;-1.65;84.12;98685.03;5063658;28;20024;-65
2022/03/04 06:55:42;;;;;;;22.23;10.20;;;;;;;-1.48;83.11;98689.00;5063884;28;20304;-66
2022/03/04 06:58:07;;;;;;;23.88;10.23;;;;;;;-0.92;81.69;98696.56;5063627;28;20048;-66
2022/03/04 07:00:33;;;;;;;23.27;10.60;;;;;;;-0.49;80.06;98701.13;5063463;28;20041;-66
2022/03/04 07:02:58;;;;;;;23.00;12.07;;;;;;;-0.12;77.96;98699.44;5063519;28;20017;-66
2022/03/04 07:05:24;;;;;;;27.77;12.35;;;;;;;0.26;76.75;98702.00;5063078;28;20086;-66
2022/03/04 07:07:51;;;;;;;34.03;13.30;;;;;;;0.72;76.11;98704.72;5063681;28;20013;-66
2022/03/04 07:10:17;;;;;;;28.50;13.43;;;;;;;1.05;74.60;98701.09;5063543;28;20339;-66
2022/03/04 07:12:43;;;;;;;26.15;12.52;;;;;;;1.31;73.80;98698.97;5063660;28;20078;-66
2022/03/04 07:15:09;;;;;;;28.90;13.00;;;;;;;1.68;73.07;98702.19;5063428;28;20021;-66
2022/03/04 07:17:35;;;;;;;31.13;13.95;;;;;;;1.89;71.75;98706.84;5063408;28;20397;-66
2022/03/04 07:20:00;;;;;;;36.45;13.68;;;;;;;2.32;71.52;98698.84;5063409;28;20024;-66
2022/03/04 07:22:26;;;;;;;37.15;15.45;;;;;;;2.75;70.34;98708.94;5063309;28;20031;-66
2022/03/04 07:24:51;;;;;;;33.03;14.02;;;;;;;3.04;69.83;98710.16;5063284;28;20058;-66
2022/03/04 07:27:17;;;;;;;32.22;13.82;;;;;;;3.45;69.12;98713.22;5063358;28;20217;-66
2022/03/04 07:29:42;;;;;;;37.50;14.35;;;;;;;3.53;67.58;98699.41;5063231;28;20017;-66
2022/03/04 07:32:07;;;;;;;44.47;15.98;;;;;;;3.93;66.95;98704.06;5066174;28;20313;-66
2022/03/04 07:34:33;;;;;;;31.33;14.05;;;;;;;3.93;65.69;98682.41;5067041;28;20025;-66
2022/03/04 07:36:58;;;;;;;34.40;14.52;;;;;;;4.57;66.46;98700.16;5067038;28;20021;-66
2022/03/04 07:39:24;;;;;;;37.53;14.65;;;;;;;4.75;65.09;98688.97;5066888;28;20040;-66
2022/03/04 07:41:50;;;;;;;37.63;15.50;;;;;;;5.10;62.68;98684.75;5066888;28;20090;-66
2022/03/04 07:44:16;;;;;;;34.13;14.95;;;;;;;5.22;62.28;98676.97;5065903;28;20020;-66
2022/03/04 07:46:41;;;;;;;38.90;15.52;;;;;;;5.40;62.57;98669.13;5065984;28;20259;-66
2022/03/04 07:49:07;;;;;;;32.88;13.73;;;;;;;5.65;59.27;98673.53;5066777;28;20024;-66
2022/03/04 07:51:33;;;;;;;35.38;15.75;;;;;;;6.01;57.63;98668.34;5066932;28;20029;-66
2022/03/04 07:53:59;;;;;;;30.30;14.38;;;;;;;6.34;55.65;98665.66;5066916;28;20204;-67
2022/03/04 07:56:24;;;;;;;30.75;14.25;;;;;;;7.17;54.43;98671.44;5066637;28;20059;-66
2022/03/04 07:58:50;;;;;;;33.83;14.52;;;;;;;7.46;52.44;98659.03;5066583;28;20035;-66
2022/03/04 08:01:15;;;;;;;27.38;14.27;;;;;;;7.11;53.79;98655.78;5066355;28;20105;-66
2022/03/04 08:03:42;;;;;;;30.52;12.85;;;;;;;8.00;52.32;98657.75;5066526;28;20025;-66
2022/03/04 08:06:08;;;;;;;23.98;13.25;;;;;;;8.15;50.79;98663.72;5066721;28;20024;-67
2022/03/04 08:08:34;;;;;;;24.67;12.10;;;;;;;8.12;51.07;98668.13;5066413;28;20320;-67
2022/03/04 08:11:00;;;;;;;24.90;11.95;;;;;;;8.35;50.68;98701.16;5066249;28;20088;-66
2022/03/04 08:13:25;;;;;;;25.67;12.85;;;;;;;7.73;49.84;98700.78;5066224;28;20025;-66
2022/03/04 08:15:51;;;;;;;24.70;12.13;;;;;;;8.42;50.09;98721.16;5066519;28;20028;-66
2022/03/04 08:18:17;;;;;;;26.80;13.40;;;;;;;8.32;49.11;98724.78;5066485;28;20212;-66
2022/03/04 08:20:42;;;;;;;24.73;12.25;;;;;;;9.22;47.42;98727.28;5066160;28;20021;-66
2022/03/04 08:23:08;;;;;;;25.63;13.00;;;;;;;9.00;46.17;98715.31;5066103;28;20032;-66
2022/03/04 08:25:33;;;;;;;25.33;12.73;;;;;;;9.21;46.66;98715.91;5066020;28;20066;-66
2022/03/04 08:27:58;;;;;;;22.17;11.35;;;;;;;9.28;46.43;98711.47;5066022;28;20029;-66
2022/03/04 08:30:24;;;;;;;27.05;12.70;;;;;;;9.56;46.24;98702.31;5066007;28;20025;-66
2022/03/04 08:32:49;;;;;;;20.88;11.70;;;;;;;9.84;44.65;98719.44;5065942;28;20025;-66
2022/03/04 08:35:16;;;;;;;22.45;11.45;;;;;;;10.17;42.80;98729.44;5065903;28;20048;-66
2022/03/04 08:37:41;;;;;;;22.35;10.98;;;;;;;9.62;43.33;98767.94;5065871;28;20024;-66
2022/03/04 08:40:09;;;;;;;21.85;11.40;;;;;;;9.84;43.16;98708.91;5066043;28;20042;-66
2022/03/04 08:42:36;;;;;;;23.20;11.07;;;;;;;9.57;43.28;98735.56;5064806;28;20325;-66
2022/03/04 08:45:02;;;;;;;23.75;11.95;;;;;;;9.84;43.05;98714.16;5065740;28;20197;-66
2022/03/04 08:47:28;;;;;;;24.60;12.63;;;;;;;9.96;42.75;98719.22;5065663;28;20032;-66
2022/03/04 08:49:53;;;;;;;24.90;12.20;;;;;;;10.16;41.97;98732.97;5065567;28;20032;-66
2022/03/04 08:52:19;;;;;;;28.85;12.48;;;;;;;10.93;40.86;98724.56;5065835;28;20051;-66
2022/03/04 08:54:44;;;;;;;26.13;13.02;;;;;;;10.79;40.60;98726.59;5065545;28;20020;-66
2022/03/04 08:57:09;;;;;;;23.70;12.40;;;;;;;10.47;40.61;98728.91;5065490;28;20347;-66
2022/03/04 08:59:35;;;;;;;27.38;12.95;;;;;;;10.65;40.38;98723.31;5065476;28;20017;-66
2022/03/04 09:02:01;;;;;;;21.13;11.85;;;;;;;10.57;41.14;98651.56;5065684;28;20217;-66
2022/03/04 09:04:26;;;;;;;20.92;11.77;;;;;;;10.39;40.46;98709.78;5065345;28;20024;-66
2022/03/04 09:06:52;;;;;;;25.80;12.15;;;;;;;10.25;40.48;98701.25;5065564;28;20029;-66
2022/03/04 09:09:17;;;;;;;23.48;11.70;;;;;;;10.96;40.15;98700.78;5065172;28;20025;-66
2022/03/04 09:11:43;;;;;;;25.35;13.23;;;;;;;10.19;40.68;98698.72;5065129;28;20029;-66
2022/03/04 09:14:08;;;;;;;29.30;12.32;;;;;;;10.95;40.38;98717.50;5065375;28;20060;-66
2022/03/04 09:16:34;;;;;;;23.08;11.68;;;;;;;11.50;39.37;98702.28;5065142;28;20021;-66
2022/03/04 09:19:00;;;;;;;22.05;12.18;;;;;;;11.47;38.66;98681.25;5065035;28;20048;-66
2022/03/04 09:21:26;;;;;;;24.23;11.95;;;;;;;11.68;38.21;98701.03;5065031;28;20044;-66
2022/03/04 09:23:51;;;;;;;22.77;11.48;;;;;;;11.51;38.41;98706.66;5064909;28;20025;-66
2022/03/04 09:26:17;;;;;;;26.15;12.57;;;;;;;11.37;39.16;98706.09;5064982;28;20044;-66
2022/03/04 09:28:42;;;;;;;28.30;13.05;;;;;;;11.56;38.59;98704.78;5064869;28;20063;-66
2022/03/04 09:31:07;;;;;;;22.85;11.35;;;;;;;11.56;38.59;98706.53;5064753;28;20028;-66
2022/03/04 09:33:33;;;;;;;21.23;11.18;;;;;;;11.14;39.17;98708.34;5064787;28;20221;-66
2022/03/04 09:36:00;;;;;;;25.48;12.60;;;;;;;11.04;39.01;98722.56;5065012;28;20032;-66
2022/03/04 09:38:26;;;;;;;20.70;11.60;;;;;;;11.42;38.26;98727.91;5064930;28;20313;-66
2022/03/04 09:40:52;;;;;;;26.05;12.32;;;;;;;11.10;39.08;98737.41;5064678;28;20066;-66
2022/03/04 09:43:18;;;;;;;24.17;11.52;;;;;;;10.97;38.88;98731.50;5064708;28;20343;-66
2022/03/04 09:45:48;;;;;;;24.17;13.18;;;;;;;11.19;39.39;98724.91;5064809;28;20025;-66
2022/03/04 09:48:15;;;;;;;25.35;11.88;;;;;;;12.12;38.33;98725.47;5064468;28;20029;-66
2022/03/04 09:50:43;;;;;;;23.27;12.25;;;;;;;12.16;37.49;98723.63;5064387;28;20052;-66
2022/03/04 09:53:11;;;;;;;19.55;11.32;;;;;;;11.91;37.27;98714.56;5064441;28;20035;-66
2022/03/04 09:55:38;;;;;;;23.33;12.85;;;;;;;12.25;37.06;98721.63;5064543;28;20316;-66
2022/03/04 09:58:08;;;;;;;21.77;12.07;;;;;;;12.25;36.92;98732.16;5064429;28;20036;-67
2022/03/04 10:00:33;;;;;;;25.70;11.82;;;;;;;11.96;37.23;98729.34;5064340;28;20198;-66
2022/03/04 10:02:58;;;;;;;27.00;12.55;;;;;;;11.84;37.23;98708.56;5064319;28;20070;-66
2022/03/04 10:05:24;;;;;;;29.50;12.15;;;;;;;11.69;37.67;98724.72;5063772;28;20024;-66
2022/03/04 10:07:50;;;;;;;24.52;11.73;;;;;;;11.94;38.44;98715.38;5064187;28;20051;-66
2022/03/04 10:10:17;;;;;;;24.30;11.80;;;;;;;11.49;37.80;98729.56;5064354;28;20032;-66
2022/03/04 10:13:03;;;;;;;22.30;12.48;;;;;;;11.66;37.80;98711.63;5064017;28;20059;-66
2022/03/04 10:15:28;;;;;;;25.48;12.05;;;;;;;11.89;37.23;98717.22;5063879;28;20315;-66
2022/03/04 10:17:58;;;;;;;24.13;13.40;;;;;;;12.10;37.23;98724.66;5064067;28;20032;-67
2022/03/04 10:20:36;;;;;;;29.85;13.70;;;;;;;12.00;37.43;98725.78;5063878;28;20041;-67
2022/03/04 10:23:13;;;;;;;23.35;12.05;;;;;;;12.05;36.72;98738.81;5064011;28;20024;-66
2022/03/04 10:25:42;;;;;;;25.77;12.93;;;;;;;11.53;37.97;98739.13;5063936;28;20036;-66
2022/03/04 10:28:09;;;;;;;28.02;12.57;;;;;;;10.96;38.14;98713.97;5062814;28;20028;-66
2022/03/04 10:30:36;;;;;;;25.13;12.88;;;;;;;10.25;38.56;98738.09;5063825;28;20321;-66
2022/03/04 10:33:09;;;;;;;26.98;12.93;;;;;;;10.20;39.16;98753.06;5063880;28;20348;-66
2022/03/04 10:35:36;;;;;;;28.35;13.07;;;;;;;10.21;39.08;98731.13;5059402;28;20220;-66
2022/03/04 10:38:04;;;;;;;28.38;13.73;;;;;;;10.05;39.68;98721.72;5050011;28;20201;-66
2022/03/04 10:40:35;;;;;;;27.80;12.65;;;;;;;10.79;39.27;98732.72;5064031;28;20049;-66
2022/03/04 10:43:07;;;;;;;26.58;12.13;;;;;;;11.19;38.28;98717.00;5064055;28;20028;-66
2022/03/04 10:45:40;;;;;;;24.17;11.20;;;;;;;10.66;39.23;98730.31;5063792;28;20055;-66
2022/03/04 10:48:15;;;;;;;28.38;13.10;;;;;;;11.52;38.07;98716.28;5061193;28;20221;-66
2022/03/04 10:50:58;;;;;;;24.52;11.90;;;;;;;11.59;37.61;98712.63;5047878;28;20333;-66
2022/03/04 10:53:32;;;;;;;27.58;12.07;;;;;;;10.94;37.56;98713.13;5043701;28;20321;-66
2022/03/04 10:56:04;;;;;;;27.40;11.38;;;;;;;11.23;37.10;98723.09;5043938;28;20017;-66
2022/03/04 10:58:36;;;;;;;25.85;11.82;;;;;;;11.13;37.02;98706.59;5043993;28;20252;-66
2022/03/04 11:01:12;;;;;;;31.02;13.07;;;;;;;10.73;37.84;98706.50;5051525;28;20042;-66
2022/03/04 11:03:39;;;;;;;26.20;11.65;;;;;;;10.38;37.05;98702.78;5043687;28;20263;-66
2022/03/04 11:06:07;;;;;;;25.50;11.02;;;;;;;10.14;37.13;98692.66;5045281;28;20053;-66
2022/03/04 11:08:32;;;;;;;25.58;11.38;;;;;;;10.49;37.11;98704.31;5065638;28;20221;-66
2022/03/04 11:10:59;;;;;;;25.30;10.52;;;;;;;10.35;37.80;98697.56;5049392;28;20090;-66
2022/03/04 11:13:25;;;;;;;22.60;9.52;;;;;;;11.11;36.33;98708.41;5050584;28;20017;-66
2022/03/04 11:15:53;;;;;;;33.20;12.10;;;;;;;10.88;36.51;98705.31;5063039;28;20228;-66